sensor_id;sensor_type;location;lat;lon;timestamp;P1;durP1;ratioP1;P2;durP2;ratioP2
35576;SDS011;21680;52.400;16.920;2022-11-20T00:01:17;28.10;;;9.60;;
35576;SDS011;21680;52.400;16.920;2022-11-20T00:03:44;25.90;;;11.20;;
35576;SDS011;21680;52.400;16.920;2022-11-20T00:06:11;21.90;;;9.90;;
35576;SDS011;21680;52.400;16.920;2022-11-20T00:08:38;26.80;;;10.90;;
35576;SDS011;21680;52.400;16.920;2022-11-20T00:11:05;25.10;;;9.80;;
35576;SDS011;21680;52.400;16.920;2022-11-20T00:13:32;22.10;;;9.40;;
35576;SDS011;21680;52.400;16.920;2022-11-20T00:15:58;26.40;;;11.30;;
35576;SDS011;21680;52.400;16.920;2022-11-20T00:18:25;24.10;;;10.70;;
35576;SDS011;21680;52.400;16.920;2022-11-20T00:20:51;30.50;;;11.60;;
35576;SDS011;21680;52.400;16.920;2022-11-20T00:23:17;21.80;;;9.20;;
35576;SDS011;21680;52.400;16.920;2022-11-20T00:25:42;25.00;;;10.60;;
35576;SDS011;21680;52.400;16.920;2022-11-20T00:28:07;22.10;;;9.90;;
35576;SDS011;21680;52.400;16.920;2022-11-20T00:30:33;24.60;;;10.00;;
35576;SDS011;21680;52.400;16.920;2022-11-20T00:32:58;22.40;;;9.50;;
35576;SDS011;21680;52.400;16.920;2022-11-20T00:35:23;22.40;;;9.60;;
35576;SDS011;21680;52.400;16.920;2022-11-20T00:37:48;19.40;;;9.60;;
35576;SDS011;21680;52.400;16.920;2022-11-20T00:40:14;22.30;;;9.20;;
35576;SDS011;21680;52.400;16.920;2022-11-20T00:42:39;21.10;;;9.80;;
35576;SDS011;21680;52.400;16.920;2022-11-20T00:45:04;22.50;;;10.20;;
35576;SDS011;21680;52.400;16.920;2022-11-20T00:47:31;16.70;;;8.30;;
35576;SDS011;21680;52.400;16.920;2022-11-20T00:49:57;23.90;;;10.20;;
35576;SDS011;21680;52.400;16.920;2022-11-20T00:52:22;21.50;;;8.80;;
35576;SDS011;21680;52.400;16.920;2022-11-20T00:54:47;24.20;;;10.20;;
35576;SDS011;21680;52.400;16.920;2022-11-20T00:57:13;18.20;;;8.90;;
35576;SDS011;21680;52.400;16.920;2022-11-20T00:59:38;18.80;;;8.20;;
35576;SDS011;21680;52.400;16.920;2022-11-20T01:02:03;21.20;;;8.60;;
35576;SDS011;21680;52.400;16.920;2022-11-20T01:04:28;16.70;;;7.30;;
35576;SDS011;21680;52.400;16.920;2022-11-20T01:06:54;23.40;;;8.60;;
35576;SDS011;21680;52.400;16.920;2022-11-20T01:09:19;19.90;;;7.90;;
35576;SDS011;21680;52.400;16.920;2022-11-20T01:11:44;20.70;;;9.30;;
35576;SDS011;21680;52.400;16.920;2022-11-20T01:14:11;18.40;;;8.20;;
35576;SDS011;21680;52.400;16.920;2022-11-20T01:16:51;20.30;;;9.10;;
35576;SDS011;21680;52.400;16.920;2022-11-20T01:19:17;23.40;;;10.00;;
35576;SDS011;21680;52.400;16.920;2022-11-20T01:21:46;17.80;;;9.40;;
35576;SDS011;21680;52.400;16.920;2022-11-20T01:24:15;22.50;;;9.70;;
35576;SDS011;21680;52.400;16.920;2022-11-20T01:26:43;21.70;;;9.20;;
35576;SDS011;21680;52.400;16.920;2022-11-20T01:29:14;20.60;;;8.30;;
35576;SDS011;21680;52.400;16.920;2022-11-20T01:31:42;21.50;;;9.10;;
35576;SDS011;21680;52.400;16.920;2022-11-20T01:34:11;17.70;;;8.10;;
35576;SDS011;21680;52.400;16.920;2022-11-20T01:36:38;21.00;;;9.30;;
35576;SDS011;21680;52.400;16.920;2022-11-20T01:39:05;18.60;;;9.40;;
35576;SDS011;21680;52.400;16.920;2022-11-20T01:41:34;21.90;;;10.30;;
35576;SDS011;21680;52.400;16.920;2022-11-20T01:44:19;20.20;;;9.50;;
35576;SDS011;21680;52.400;16.920;2022-11-20T01:46:55;17.80;;;8.40;;
35576;SDS011;21680;52.400;16.920;2022-11-20T01:49:44;20.10;;;9.60;;
35576;SDS011;21680;52.400;16.920;2022-11-20T01:54:53;23.10;;;9.40;;
35576;SDS011;21680;52.400;16.920;2022-11-20T01:57:31;21.90;;;10.40;;
35576;SDS011;21680;52.400;16.920;2022-11-20T02:00:01;23.30;;;10.20;;
35576;SDS011;21680;52.400;16.920;2022-11-20T02:02:33;26.20;;;9.10;;
35576;SDS011;21680;52.400;16.920;2022-11-20T02:05:00;21.10;;;9.80;;
35576;SDS011;21680;52.400;16.920;2022-11-20T02:07:33;19.00;;;9.70;;
35576;SDS011;21680;52.400;16.920;2022-11-20T02:09:58;25.50;;;10.40;;
35576;SDS011;21680;52.400;16.920;2022-11-20T02:12:23;21.80;;;10.10;;
35576;SDS011;21680;52.400;16.920;2022-11-20T02:15:08;22.80;;;10.30;;
35576;SDS011;21680;52.400;16.920;2022-11-20T02:17:34;22.00;;;10.70;;
35576;SDS011;21680;52.400;16.920;2022-11-20T02:20:00;20.90;;;10.20;;
35576;SDS011;21680;52.400;16.920;2022-11-20T02:22:28;22.90;;;11.00;;
35576;SDS011;21680;52.400;16.920;2022-11-20T02:25:00;21.40;;;11.00;;
35576;SDS011;21680;52.400;16.920;2022-11-20T02:27:28;25.10;;;11.40;;
35576;SDS011;21680;52.400;16.920;2022-11-20T02:29:56;22.40;;;9.80;;
35576;SDS011;21680;52.400;16.920;2022-11-20T02:32:29;28.50;;;12.50;;
35576;SDS011;21680;52.400;16.920;2022-11-20T02:34:57;25.30;;;11.60;;
35576;SDS011;21680;52.400;16.920;2022-11-20T02:37:25;23.80;;;11.90;;
35576;SDS011;21680;52.400;16.920;2022-11-20T02:39:55;28.10;;;12.10;;
35576;SDS011;21680;52.400;16.920;2022-11-20T02:42:21;24.80;;;11.60;;
35576;SDS011;21680;52.400;16.920;2022-11-20T02:44:46;26.80;;;12.00;;
35576;SDS011;21680;52.400;16.920;2022-11-20T02:47:11;26.10;;;12.30;;
35576;SDS011;21680;52.400;16.920;2022-11-20T02:49:37;26.50;;;12.10;;
35576;SDS011;21680;52.400;16.920;2022-11-20T02:52:02;25.70;;;11.90;;
35576;SDS011;21680;52.400;16.920;2022-11-20T02:54:27;28.10;;;11.90;;
35576;SDS011;21680;52.400;16.920;2022-11-20T02:56:53;31.20;;;13.30;;
35576;SDS011;21680;52.400;16.920;2022-11-20T02:59:19;27.40;;;12.60;;
35576;SDS011;21680;52.400;16.920;2022-11-20T03:01:44;28.60;;;11.80;;
35576;SDS011;21680;52.400;16.920;2022-11-20T03:04:10;30.10;;;13.40;;
35576;SDS011;21680;52.400;16.920;2022-11-20T03:06:35;23.90;;;11.30;;
35576;SDS011;21680;52.400;16.920;2022-11-20T03:09:00;25.80;;;11.80;;
35576;SDS011;21680;52.400;16.920;2022-11-20T03:11:26;31.90;;;13.60;;
35576;SDS011;21680;52.400;16.920;2022-11-20T03:13:51;26.40;;;12.20;;
35576;SDS011;21680;52.400;16.920;2022-11-20T03:16:17;30.10;;;13.80;;
35576;SDS011;21680;52.400;16.920;2022-11-20T03:18:44;26.50;;;12.30;;
35576;SDS011;21680;52.400;16.920;2022-11-20T03:21:11;28.80;;;12.30;;
35576;SDS011;21680;52.400;16.920;2022-11-20T03:23:37;25.90;;;12.70;;
35576;SDS011;21680;52.400;16.920;2022-11-20T03:26:10;25.40;;;12.40;;
35576;SDS011;21680;52.400;16.920;2022-11-20T03:28:39;28.60;;;13.10;;
35576;SDS011;21680;52.400;16.920;2022-11-20T03:31:06;26.60;;;12.60;;
35576;SDS011;21680;52.400;16.920;2022-11-20T03:33:36;26.40;;;12.20;;
35576;SDS011;21680;52.400;16.920;2022-11-20T03:36:02;29.30;;;14.20;;
35576;SDS011;21680;52.400;16.920;2022-11-20T03:38:30;31.70;;;13.60;;
35576;SDS011;21680;52.400;16.920;2022-11-20T03:41:00;25.30;;;11.60;;
35576;SDS011;21680;52.400;16.920;2022-11-20T03:43:27;24.40;;;11.90;;
35576;SDS011;21680;52.400;16.920;2022-11-20T03:45:53;27.10;;;12.40;;
35576;SDS011;21680;52.400;16.920;2022-11-20T03:48:18;34.30;;;13.00;;
35576;SDS011;21680;52.400;16.920;2022-11-20T03:50:43;27.10;;;12.10;;
35576;SDS011;21680;52.400;16.920;2022-11-20T03:53:09;34.80;;;13.30;;
35576;SDS011;21680;52.400;16.920;2022-11-20T03:55:36;31.70;;;12.40;;
35576;SDS011;21680;52.400;16.920;2022-11-20T03:58:01;29.30;;;13.00;;
35576;SDS011;21680;52.400;16.920;2022-11-20T04:00:26;22.90;;;11.50;;
35576;SDS011;21680;52.400;16.920;2022-11-20T04:02:52;27.90;;;12.00;;
35576;SDS011;21680;52.400;16.920;2022-11-20T04:05:17;25.80;;;11.50;;
35576;SDS011;21680;52.400;16.920;2022-11-20T04:07:42;27.60;;;12.30;;
35576;SDS011;21680;52.400;16.920;2022-11-20T04:10:08;22.80;;;11.40;;
35576;SDS011;21680;52.400;16.920;2022-11-20T04:12:33;26.30;;;12.90;;
35576;SDS011;21680;52.400;16.920;2022-11-20T04:14:59;29.90;;;12.10;;
35576;SDS011;21680;52.400;16.920;2022-11-20T04:17:24;28.90;;;12.80;;
35576;SDS011;21680;52.400;16.920;2022-11-20T04:19:49;36.00;;;14.80;;
35576;SDS011;21680;52.400;16.920;2022-11-20T04:22:15;34.90;;;14.70;;
35576;SDS011;21680;52.400;16.920;2022-11-20T04:24:40;35.10;;;14.70;;
35576;SDS011;21680;52.400;16.920;2022-11-20T04:27:06;30.10;;;13.40;;
35576;SDS011;21680;52.400;16.920;2022-11-20T04:29:31;35.80;;;14.60;;
35576;SDS011;21680;52.400;16.920;2022-11-20T04:31:56;29.90;;;14.30;;
35576;SDS011;21680;52.400;16.920;2022-11-20T04:34:21;36.30;;;15.30;;
35576;SDS011;21680;52.400;16.920;2022-11-20T04:36:47;32.60;;;15.30;;
35576;SDS011;21680;52.400;16.920;2022-11-20T04:39:13;27.70;;;11.30;;
35576;SDS011;21680;52.400;16.920;2022-11-20T04:41:40;29.00;;;13.30;;
35576;SDS011;21680;52.400;16.920;2022-11-20T04:44:06;32.70;;;15.40;;
35576;SDS011;21680;52.400;16.920;2022-11-20T04:46:32;30.70;;;14.00;;
35576;SDS011;21680;52.400;16.920;2022-11-20T04:48:59;27.00;;;12.40;;
35576;SDS011;21680;52.400;16.920;2022-11-20T04:51:25;29.70;;;12.50;;
35576;SDS011;21680;52.400;16.920;2022-11-20T04:53:51;32.80;;;13.90;;
35576;SDS011;21680;52.400;16.920;2022-11-20T04:56:17;33.30;;;14.20;;
35576;SDS011;21680;52.400;16.920;2022-11-20T04:58:42;32.30;;;13.00;;
35576;SDS011;21680;52.400;16.920;2022-11-20T05:03:38;29.40;;;13.40;;
35576;SDS011;21680;52.400;16.920;2022-11-20T05:06:05;30.50;;;12.50;;
35576;SDS011;21680;52.400;16.920;2022-11-20T05:08:32;24.50;;;11.90;;
35576;SDS011;21680;52.400;16.920;2022-11-20T05:11:04;28.00;;;11.60;;
35576;SDS011;21680;52.400;16.920;2022-11-20T05:13:32;25.80;;;10.50;;
35576;SDS011;21680;52.400;16.920;2022-11-20T05:16:05;24.20;;;12.70;;
35576;SDS011;21680;52.400;16.920;2022-11-20T05:18:32;26.20;;;11.90;;
35576;SDS011;21680;52.400;16.920;2022-11-20T05:20:58;26.10;;;10.90;;
35576;SDS011;21680;52.400;16.920;2022-11-20T05:23:24;27.70;;;14.20;;
35576;SDS011;21680;52.400;16.920;2022-11-20T05:25:53;27.00;;;11.30;;
35576;SDS011;21680;52.400;16.920;2022-11-20T05:28:20;24.70;;;9.90;;
35576;SDS011;21680;52.400;16.920;2022-11-20T05:30:46;27.40;;;10.90;;
35576;SDS011;21680;52.400;16.920;2022-11-20T05:33:11;25.50;;;11.70;;
35576;SDS011;21680;52.400;16.920;2022-11-20T05:35:36;22.90;;;10.60;;
35576;SDS011;21680;52.400;16.920;2022-11-20T05:38:02;23.10;;;11.10;;
35576;SDS011;21680;52.400;16.920;2022-11-20T05:40:27;23.20;;;9.80;;
35576;SDS011;21680;52.400;16.920;2022-11-20T05:42:52;24.20;;;11.00;;
35576;SDS011;21680;52.400;16.920;2022-11-20T05:45:18;28.90;;;12.10;;
35576;SDS011;21680;52.400;16.920;2022-11-20T05:47:43;28.00;;;12.50;;
35576;SDS011;21680;52.400;16.920;2022-11-20T05:50:08;30.00;;;12.80;;
35576;SDS011;21680;52.400;16.920;2022-11-20T05:52:33;24.00;;;11.30;;
35576;SDS011;21680;52.400;16.920;2022-11-20T05:54:59;30.40;;;12.10;;
35576;SDS011;21680;52.400;16.920;2022-11-20T05:57:24;30.70;;;12.40;;
35576;SDS011;21680;52.400;16.920;2022-11-20T05:59:49;33.00;;;13.90;;
35576;SDS011;21680;52.400;16.920;2022-11-20T06:02:15;28.40;;;11.40;;
35576;SDS011;21680;52.400;16.920;2022-11-20T06:04:40;31.10;;;13.50;;
35576;SDS011;21680;52.400;16.920;2022-11-20T06:07:05;35.20;;;15.50;;
35576;SDS011;21680;52.400;16.920;2022-11-20T06:09:31;35.90;;;14.60;;
35576;SDS011;21680;52.400;16.920;2022-11-20T06:11:57;33.50;;;13.70;;
35576;SDS011;21680;52.400;16.920;2022-11-20T06:14:22;36.80;;;15.70;;
35576;SDS011;21680;52.400;16.920;2022-11-20T06:16:48;35.10;;;13.30;;
35576;SDS011;21680;52.400;16.920;2022-11-20T06:19:13;34.80;;;13.50;;
35576;SDS011;21680;52.400;16.920;2022-11-20T06:21:39;41.50;;;16.00;;
35576;SDS011;21680;52.400;16.920;2022-11-20T06:24:05;35.30;;;14.40;;
35576;SDS011;21680;52.400;16.920;2022-11-20T06:26:31;36.60;;;15.20;;
35576;SDS011;21680;52.400;16.920;2022-11-20T06:28:56;35.30;;;14.20;;
35576;SDS011;21680;52.400;16.920;2022-11-20T06:31:22;34.90;;;15.50;;
35576;SDS011;21680;52.400;16.920;2022-11-20T06:33:49;32.80;;;14.60;;
35576;SDS011;21680;52.400;16.920;2022-11-20T06:36:16;41.70;;;16.90;;
35576;SDS011;21680;52.400;16.920;2022-11-20T06:38:44;38.30;;;14.70;;
35576;SDS011;21680;52.400;16.920;2022-11-20T06:41:13;36.10;;;16.10;;
35576;SDS011;21680;52.400;16.920;2022-11-20T06:43:41;32.60;;;13.60;;
35576;SDS011;21680;52.400;16.920;2022-11-20T06:46:08;37.10;;;13.60;;
35576;SDS011;21680;52.400;16.920;2022-11-20T06:48:35;33.40;;;13.40;;
35576;SDS011;21680;52.400;16.920;2022-11-20T06:51:02;33.90;;;15.10;;
35576;SDS011;21680;52.400;16.920;2022-11-20T06:53:28;31.40;;;14.20;;
35576;SDS011;21680;52.400;16.920;2022-11-20T06:55:55;37.80;;;15.70;;
35576;SDS011;21680;52.400;16.920;2022-11-20T06:58:21;44.00;;;17.20;;
35576;SDS011;21680;52.400;16.920;2022-11-20T07:00:47;38.20;;;16.90;;
35576;SDS011;21680;52.400;16.920;2022-11-20T07:03:12;36.80;;;15.10;;
35576;SDS011;21680;52.400;16.920;2022-11-20T07:05:38;36.60;;;14.10;;
35576;SDS011;21680;52.400;16.920;2022-11-20T07:08:04;37.20;;;16.70;;
35576;SDS011;21680;52.400;16.920;2022-11-20T07:10:30;44.10;;;17.30;;
35576;SDS011;21680;52.400;16.920;2022-11-20T07:12:56;39.30;;;15.70;;
35576;SDS011;21680;52.400;16.920;2022-11-20T07:15:22;39.70;;;17.80;;
35576;SDS011;21680;52.400;16.920;2022-11-20T07:17:49;44.30;;;17.20;;
35576;SDS011;21680;52.400;16.920;2022-11-20T07:20:14;40.60;;;17.50;;
35576;SDS011;21680;52.400;16.920;2022-11-20T07:22:40;39.30;;;15.50;;
35576;SDS011;21680;52.400;16.920;2022-11-20T07:25:06;47.90;;;18.40;;
35576;SDS011;21680;52.400;16.920;2022-11-20T07:27:33;43.70;;;16.60;;
35576;SDS011;21680;52.400;16.920;2022-11-20T07:29:59;40.20;;;15.20;;
35576;SDS011;21680;52.400;16.920;2022-11-20T07:32:25;42.30;;;16.50;;
35576;SDS011;21680;52.400;16.920;2022-11-20T07:34:50;44.50;;;16.20;;
35576;SDS011;21680;52.400;16.920;2022-11-20T07:37:16;40.60;;;17.30;;
35576;SDS011;21680;52.400;16.920;2022-11-20T07:39:41;37.70;;;15.00;;
35576;SDS011;21680;52.400;16.920;2022-11-20T07:42:07;39.20;;;17.80;;
35576;SDS011;21680;52.400;16.920;2022-11-20T07:44:33;42.40;;;17.40;;
35576;SDS011;21680;52.400;16.920;2022-11-20T07:46:59;35.40;;;15.90;;
35576;SDS011;21680;52.400;16.920;2022-11-20T07:49:24;41.50;;;17.90;;
35576;SDS011;21680;52.400;16.920;2022-11-20T07:51:50;33.40;;;14.50;;
35576;SDS011;21680;52.400;16.920;2022-11-20T07:54:18;46.90;;;17.50;;
35576;SDS011;21680;52.400;16.920;2022-11-20T07:56:43;42.70;;;18.20;;
35576;SDS011;21680;52.400;16.920;2022-11-20T07:59:08;41.10;;;16.70;;
35576;SDS011;21680;52.400;16.920;2022-11-20T08:01:33;45.10;;;18.90;;
35576;SDS011;21680;52.400;16.920;2022-11-20T08:03:59;46.90;;;19.10;;
35576;SDS011;21680;52.400;16.920;2022-11-20T08:06:24;45.60;;;17.20;;
35576;SDS011;21680;52.400;16.920;2022-11-20T08:08:50;38.20;;;16.20;;
35576;SDS011;21680;52.400;16.920;2022-11-20T08:11:16;42.90;;;17.90;;
35576;SDS011;21680;52.400;16.920;2022-11-20T08:14:00;47.00;;;18.40;;
35576;SDS011;21680;52.400;16.920;2022-11-20T08:16:41;40.10;;;17.20;;
35576;SDS011;21680;52.400;16.920;2022-11-20T08:19:12;37.70;;;15.50;;
35576;SDS011;21680;52.400;16.920;2022-11-20T08:21:38;41.50;;;17.50;;
35576;SDS011;21680;52.400;16.920;2022-11-20T08:24:04;41.80;;;16.60;;
35576;SDS011;21680;52.400;16.920;2022-11-20T08:26:31;42.20;;;17.00;;
35576;SDS011;21680;52.400;16.920;2022-11-20T08:28:56;40.40;;;17.50;;
35576;SDS011;21680;52.400;16.920;2022-11-20T08:31:22;38.90;;;15.70;;
35576;SDS011;21680;52.400;16.920;2022-11-20T08:33:49;40.70;;;16.00;;
35576;SDS011;21680;52.400;16.920;2022-11-20T08:36:15;35.00;;;15.90;;
35576;SDS011;21680;52.400;16.920;2022-11-20T08:38:40;35.40;;;15.30;;
35576;SDS011;21680;52.400;16.920;2022-11-20T08:41:06;45.30;;;18.20;;
35576;SDS011;21680;52.400;16.920;2022-11-20T08:43:51;35.30;;;14.30;;
35576;SDS011;21680;52.400;16.920;2022-11-20T08:46:17;41.60;;;15.40;;
35576;SDS011;21680;52.400;16.920;2022-11-20T08:48:42;42.00;;;16.50;;
35576;SDS011;21680;52.400;16.920;2022-11-20T08:51:08;42.60;;;16.80;;
35576;SDS011;21680;52.400;16.920;2022-11-20T08:53:33;43.30;;;17.10;;
35576;SDS011;21680;52.400;16.920;2022-11-20T08:55:58;40.60;;;17.10;;
35576;SDS011;21680;52.400;16.920;2022-11-20T08:58:24;34.50;;;15.50;;
35576;SDS011;21680;52.400;16.920;2022-11-20T09:00:50;44.70;;;18.30;;
35576;SDS011;21680;52.400;16.920;2022-11-20T09:03:15;41.50;;;16.90;;
35576;SDS011;21680;52.400;16.920;2022-11-20T09:05:41;45.40;;;17.70;;
35576;SDS011;21680;52.400;16.920;2022-11-20T09:08:07;39.10;;;17.00;;
35576;SDS011;21680;52.400;16.920;2022-11-20T09:10:33;39.60;;;16.20;;
35576;SDS011;21680;52.400;16.920;2022-11-20T09:12:58;35.80;;;15.20;;
35576;SDS011;21680;52.400;16.920;2022-11-20T09:15:24;33.10;;;15.10;;
35576;SDS011;21680;52.400;16.920;2022-11-20T09:17:53;40.90;;;16.60;;
35576;SDS011;21680;52.400;16.920;2022-11-20T09:20:20;37.10;;;16.50;;
35576;SDS011;21680;52.400;16.920;2022-11-20T09:22:46;40.80;;;15.30;;
35576;SDS011;21680;52.400;16.920;2022-11-20T09:25:12;34.10;;;15.00;;
35576;SDS011;21680;52.400;16.920;2022-11-20T09:27:37;44.80;;;18.50;;
35576;SDS011;21680;52.400;16.920;2022-11-20T09:30:02;38.70;;;16.10;;
35576;SDS011;21680;52.400;16.920;2022-11-20T09:32:28;40.30;;;16.20;;
35576;SDS011;21680;52.400;16.920;2022-11-20T09:34:53;36.10;;;15.50;;
35576;SDS011;21680;52.400;16.920;2022-11-20T09:37:19;37.50;;;16.60;;
35576;SDS011;21680;52.400;16.920;2022-11-20T09:39:44;32.90;;;14.60;;
35576;SDS011;21680;52.400;16.920;2022-11-20T09:45:18;44.20;;;16.80;;
35576;SDS011;21680;52.400;16.920;2022-11-20T09:56:23;44.50;;;16.60;;
35576;SDS011;21680;52.400;16.920;2022-11-20T09:58:51;36.50;;;16.70;;
35576;SDS011;21680;52.400;16.920;2022-11-20T10:01:20;39.70;;;15.60;;
35576;SDS011;21680;52.400;16.920;2022-11-20T10:06:48;48.70;;;19.30;;
35576;SDS011;21680;52.400;16.920;2022-11-20T10:09:16;46.30;;;18.70;;
35576;SDS011;21680;52.400;16.920;2022-11-20T10:17:23;38.00;;;14.90;;
35576;SDS011;21680;52.400;16.920;2022-11-20T10:19:58;32.80;;;14.50;;
35576;SDS011;21680;52.400;16.920;2022-11-20T10:22:47;32.60;;;14.40;;
35576;SDS011;21680;52.400;16.920;2022-11-20T10:25:18;36.10;;;14.90;;
35576;SDS011;21680;52.400;16.920;2022-11-20T10:30:30;32.70;;;14.60;;
35576;SDS011;21680;52.400;16.920;2022-11-20T10:35:52;34.70;;;14.70;;
35576;SDS011;21680;52.400;16.920;2022-11-20T10:38:45;36.80;;;15.30;;
35576;SDS011;21680;52.400;16.920;2022-11-20T10:41:17;38.10;;;15.80;;
35576;SDS011;21680;52.400;16.920;2022-11-20T10:44:25;40.70;;;16.10;;
35576;SDS011;21680;52.400;16.920;2022-11-20T10:47:05;35.50;;;14.70;;
35576;SDS011;21680;52.400;16.920;2022-11-20T10:49:38;40.40;;;15.80;;
35576;SDS011;21680;52.400;16.920;2022-11-20T10:57:59;36.60;;;14.60;;
35576;SDS011;21680;52.400;16.920;2022-11-20T11:00:32;34.20;;;15.20;;
35576;SDS011;21680;52.400;16.920;2022-11-20T11:02:58;31.70;;;14.60;;
35576;SDS011;21680;52.400;16.920;2022-11-20T11:05:37;37.10;;;16.00;;
35576;SDS011;21680;52.400;16.920;2022-11-20T11:08:12;32.80;;;13.40;;
35576;SDS011;21680;52.400;16.920;2022-11-20T11:13:19;38.50;;;14.40;;
35576;SDS011;21680;52.400;16.920;2022-11-20T11:15:50;34.90;;;14.20;;
35576;SDS011;21680;52.400;16.920;2022-11-20T11:18:30;40.50;;;15.70;;
35576;SDS011;21680;52.400;16.920;2022-11-20T11:20:57;38.60;;;14.20;;
35576;SDS011;21680;52.400;16.920;2022-11-20T11:25:58;35.70;;;14.80;;
35576;SDS011;21680;52.400;16.920;2022-11-20T11:28:25;37.00;;;14.60;;
35576;SDS011;21680;52.400;16.920;2022-11-20T11:30:53;32.60;;;14.10;;
35576;SDS011;21680;52.400;16.920;2022-11-20T11:33:23;36.10;;;15.40;;
35576;SDS011;21680;52.400;16.920;2022-11-20T11:38:43;38.70;;;15.80;;
35576;SDS011;21680;52.400;16.920;2022-11-20T11:41:09;37.60;;;16.70;;
35576;SDS011;21680;52.400;16.920;2022-11-20T11:43:40;42.20;;;16.40;;
35576;SDS011;21680;52.400;16.920;2022-11-20T11:46:35;37.50;;;16.30;;
35576;SDS011;21680;52.400;16.920;2022-11-20T11:54:23;48.50;;;18.90;;
35576;SDS011;21680;52.400;16.920;2022-11-20T11:56:51;63.00;;;22.40;;
35576;SDS011;21680;52.400;16.920;2022-11-20T11:59:33;41.00;;;17.10;;
35576;SDS011;21680;52.400;16.920;2022-11-20T12:02:15;38.20;;;15.60;;
35576;SDS011;21680;52.400;16.920;2022-11-20T12:04:56;40.50;;;15.70;;
35576;SDS011;21680;52.400;16.920;2022-11-20T12:09:59;35.30;;;15.10;;
35576;SDS011;21680;52.400;16.920;2022-11-20T12:12:31;36.30;;;14.50;;
35576;SDS011;21680;52.400;16.920;2022-11-20T12:15:01;34.30;;;15.00;;
35576;SDS011;21680;52.400;16.920;2022-11-20T12:17:29;33.10;;;14.80;;
35576;SDS011;21680;52.400;16.920;2022-11-20T12:19:54;42.70;;;16.60;;
35576;SDS011;21680;52.400;16.920;2022-11-20T12:22:23;36.70;;;14.90;;
35576;SDS011;21680;52.400;16.920;2022-11-20T12:25:07;38.30;;;15.70;;
35576;SDS011;21680;52.400;16.920;2022-11-20T12:27:51;41.10;;;16.80;;
35576;SDS011;21680;52.400;16.920;2022-11-20T12:30:34;43.60;;;18.00;;
35576;SDS011;21680;52.400;16.920;2022-11-20T12:44:27;39.40;;;16.40;;
35576;SDS011;21680;52.400;16.920;2022-11-20T12:55:50;36.40;;;13.90;;
35576;SDS011;21680;52.400;16.920;2022-11-20T12:58:39;33.40;;;14.20;;
35576;SDS011;21680;52.400;16.920;2022-11-20T13:07:02;36.60;;;14.40;;
35576;SDS011;21680;52.400;16.920;2022-11-20T13:09:31;39.10;;;15.00;;
35576;SDS011;21680;52.400;16.920;2022-11-20T13:20:05;36.50;;;15.50;;
35576;SDS011;21680;52.400;16.920;2022-11-20T13:22:53;40.70;;;15.70;;
35576;SDS011;21680;52.400;16.920;2022-11-20T13:25:29;39.90;;;17.00;;
35576;SDS011;21680;52.400;16.920;2022-11-20T13:27:55;52.80;;;20.60;;
35576;SDS011;21680;52.400;16.920;2022-11-20T13:30:23;45.70;;;18.40;;
35576;SDS011;21680;52.400;16.920;2022-11-20T13:32:57;46.10;;;18.70;;
35576;SDS011;21680;52.400;16.920;2022-11-20T13:38:02;51.10;;;19.50;;
35576;SDS011;21680;52.400;16.920;2022-11-20T13:40:33;57.90;;;21.80;;
35576;SDS011;21680;52.400;16.920;2022-11-20T13:43:04;52.90;;;22.30;;
35576;SDS011;21680;52.400;16.920;2022-11-20T13:45:53;50.70;;;21.10;;
35576;SDS011;21680;52.400;16.920;2022-11-20T13:48:33;54.80;;;21.50;;
35576;SDS011;21680;52.400;16.920;2022-11-20T13:54:06;51.90;;;22.20;;
35576;SDS011;21680;52.400;16.920;2022-11-20T14:02:20;62.40;;;22.70;;
35576;SDS011;21680;52.400;16.920;2022-11-20T14:04:49;61.90;;;23.70;;
35576;SDS011;21680;52.400;16.920;2022-11-20T14:07:16;65.80;;;26.50;;
35576;SDS011;21680;52.400;16.920;2022-11-20T14:09:49;72.40;;;25.60;;
35576;SDS011;21680;52.400;16.920;2022-11-20T14:12:18;69.90;;;26.10;;
35576;SDS011;21680;52.400;16.920;2022-11-20T14:14:49;66.20;;;24.60;;
35576;SDS011;21680;52.400;16.920;2022-11-20T14:17:20;76.50;;;29.70;;
35576;SDS011;21680;52.400;16.920;2022-11-20T14:19:50;72.50;;;27.40;;
35576;SDS011;21680;52.400;16.920;2022-11-20T14:22:21;72.80;;;27.20;;
35576;SDS011;21680;52.400;16.920;2022-11-20T14:27:15;85.10;;;29.40;;
35576;SDS011;21680;52.400;16.920;2022-11-20T14:29:43;86.60;;;32.50;;
35576;SDS011;21680;52.400;16.920;2022-11-20T14:32:10;88.20;;;32.10;;
35576;SDS011;21680;52.400;16.920;2022-11-20T14:34:40;76.20;;;32.00;;
35576;SDS011;21680;52.400;16.920;2022-11-20T14:37:12;87.30;;;31.20;;
35576;SDS011;21680;52.400;16.920;2022-11-20T14:39:48;88.70;;;31.30;;
35576;SDS011;21680;52.400;16.920;2022-11-20T14:42:16;81.70;;;31.20;;
35576;SDS011;21680;52.400;16.920;2022-11-20T14:44:50;84.70;;;32.40;;
35576;SDS011;21680;52.400;16.920;2022-11-20T14:47:18;85.20;;;32.70;;
35576;SDS011;21680;52.400;16.920;2022-11-20T14:49:47;92.00;;;31.70;;
35576;SDS011;21680;52.400;16.920;2022-11-20T14:52:16;95.90;;;32.80;;
35576;SDS011;21680;52.400;16.920;2022-11-20T14:54:44;90.70;;;34.50;;
35576;SDS011;21680;52.400;16.920;2022-11-20T14:57:20;88.50;;;32.50;;
35576;SDS011;21680;52.400;16.920;2022-11-20T14:59:48;84.70;;;32.20;;
35576;SDS011;21680;52.400;16.920;2022-11-20T15:02:13;100.90;;;35.40;;
35576;SDS011;21680;52.400;16.920;2022-11-20T15:04:58;97.70;;;36.90;;
35576;SDS011;21680;52.400;16.920;2022-11-20T15:07:27;100.40;;;36.30;;
35576;SDS011;21680;52.400;16.920;2022-11-20T15:12:31;96.60;;;37.30;;
35576;SDS011;21680;52.400;16.920;2022-11-20T15:14:59;97.20;;;37.40;;
35576;SDS011;21680;52.400;16.920;2022-11-20T15:17:26;101.60;;;39.80;;
35576;SDS011;21680;52.400;16.920;2022-11-20T15:19:51;113.30;;;39.70;;
35576;SDS011;21680;52.400;16.920;2022-11-20T15:22:18;111.90;;;42.60;;
35576;SDS011;21680;52.400;16.920;2022-11-20T15:24:44;105.70;;;37.50;;
35576;SDS011;21680;52.400;16.920;2022-11-20T15:27:10;112.90;;;41.50;;
35576;SDS011;21680;52.400;16.920;2022-11-20T15:29:36;98.40;;;35.20;;
35576;SDS011;21680;52.400;16.920;2022-11-20T15:32:01;78.90;;;30.40;;
35576;SDS011;21680;52.400;16.920;2022-11-20T15:34:27;79.10;;;29.60;;
35576;SDS011;21680;52.400;16.920;2022-11-20T15:36:53;69.40;;;26.50;;
35576;SDS011;21680;52.400;16.920;2022-11-20T15:39:19;76.20;;;28.10;;
35576;SDS011;21680;52.400;16.920;2022-11-20T15:41:45;72.80;;;28.20;;
35576;SDS011;21680;52.400;16.920;2022-11-20T15:44:10;72.50;;;28.70;;
35576;SDS011;21680;52.400;16.920;2022-11-20T15:46:35;74.50;;;29.00;;
35576;SDS011;21680;52.400;16.920;2022-11-20T15:49:05;84.10;;;30.50;;
35576;SDS011;21680;52.400;16.920;2022-11-20T15:53:56;86.10;;;32.10;;
35576;SDS011;21680;52.400;16.920;2022-11-20T15:56:22;82.20;;;34.10;;
35576;SDS011;21680;52.400;16.920;2022-11-20T15:58:48;84.20;;;31.10;;
35576;SDS011;21680;52.400;16.920;2022-11-20T16:01:14;96.20;;;33.70;;
35576;SDS011;21680;52.400;16.920;2022-11-20T16:03:41;109.20;;;42.00;;